Anapolis, Brazil

3:15 AM BRT on July 28, 2014 (GMT -0300)
Anapolis Air Base (SBAN) Elev 3730 ft | 16.23 °S, 48.96 °W | Change Station

Current weather conditions updated 15 minutes ago

Clear
Clear
55 °F
Feels Like 55 °F
N
12
Wind Variable Wind from East

Today is forecast to be Much Warmer than yesterday.

Today
High -- | Low -- °F
--% Chance of Precip.
Yesterday
High -- | Low -- °F
Precip. -- in
6:41 AM 6:03 PM
New Moon, 2% visible
Pressure 30.27 in
Visibility -9999.0 miles
Clouds
Dew Point 50 °F
Humidity 82%
Rainfall 0.00 in
Snow Depth Not available.
UV Not available.
Pollen Not available.
Air Quality Not available.
Flu Activity Not available.
METAR SBAN 280600Z 09010KT CAVOK 13/10 Q1025

More Conditions Fewer Conditions

Pressure 30.27 in
Visibility -9999.0 miles
Clouds
Dew Point 50 °F
Humidity 82%
Rainfall 0.00 in
Snow Depth Not available.
UV Not available.
Pollen Not available.
Air Quality Not available.
Flu Activity Not available.
METAR SBAN 280600Z 09010KT CAVOK 13/10 Q1025

More Conditions Fewer Conditions

10-Day Weather Forecast

Almanac

Astronomy

Jul. 28, 2014 Rise Set
Actual Time 6:41 AM BRT 6:03 PM BRT
Civil Twilight 6:18 AM BRT 6:25 PM BRT
Nautical Twilight 5:52 AM BRT 6:52 PM BRT
Astronomical Twilight 5:26 AM BRT 7:18 PM BRT
Moon 7:34 AM BRT 7:32 PM BRT
Length of Visible Light 12h 07m
Length of Day
11h 21m
Tomorrow will be 0m 37s longer.
New Moon, 2% of the Moon is Illuminated
Today
New Moon
Aug 3
First Quarter
Aug 10
Full
Aug 17
Last Quarter
Aug 25
New

Yesterday's Extremes

Country Highs Country Lows

Community

WunderPhotos

Upload Photos

1,738,288 photos uploaded!

Nearby

Snow Depth

Not available.

Earthquake Activity

City Distance Mag. Time & Date
No recent earthquake activity has been reported nearby.
Minimum magnitude displayed is 2.5.

Coastal Water Temperatures

Place Temperature
No Stations Reporting

Nearby Weather Stations

There are no personal weather stations in this area.